Lovelock, NV

5:06 PM PST on March 06, 2015 (GMT -0800)
Derby | Change Station
CLOSE
Current Station
Airport
Location: Lovelock,
Elevation: 3904 ft
Nearby Weather Stations

Elev 3904 ft 40.07 °N, 118.57 °W | Updated 13 minutes ago

Clear
Clear
62 °F
Feels Like 62 °F
N
0
Wind Variable Wind from North

Today
High -- | Low -- °F
--% Chance of Precip.
Yesterday
High -- | Low -- °F
Precip. -- in
6:20 AM 5:51 PM
Full, 99% visible
Pressure 30.32 in
Visibility 9.0 miles
Clouds Clear
Dew Point 14 °F
Humidity 15%
Rainfall 0.00 in
Snow Depth Not available.
UV 1 out of 12
Pollen 3.80 out of 12
Air Quality Not available.
Flu Activity Not available.
METAR KLOL 070053Z AUTO 00000KT 9SM CLR 17/M10 A3029 RMK AO2 SLP267 T01671100

More Conditions Fewer Conditions

Pressure 30.32 in
Visibility 9.0 miles
Clouds Clear
Dew Point 14 °F
Humidity 15%
Rainfall 0.00 in
Snow Depth Not available.
UV 1 out of 12
Pollen 3.80 out of 12
Air Quality Not available.
Flu Activity Not available.
METAR KLOL 070053Z AUTO 00000KT 9SM CLR 17/M10 A3029 RMK AO2 SLP267 T01671100

More Conditions Fewer Conditions

10-Day Weather Forecast

Almanac

Astronomy

Mar. 06, 2015 Rise Set
Actual Time
Civil Twilight
Nautical Twilight
Astronomical Twilight
Moon
Length of Visible Light
Length of Day
Tomorrow will be .
, % of the Moon is Illuminated

Today's Extremes

State Highs State Lows

Community

WunderPhotos

Upload Photos

1,803,473 photos uploaded!

WunderBlogs® & News

Nearby

Air Quality

  Air Quality AQ Index Pollutant
Not available.

Snow Depth

Station Depth Elevation

Earthquake Activity

City Distance Mag. Time & Date
Minimum magnitude displayed is 2.5.

Coastal Water Temperatures

Place Temperature

Nearby Weather Stations